Time;durP1;ratioP1;P1;durP2;ratioP2;P2;SDS_P1;SDS_P2;PMS_P1;PMS_P2;Temp;Humidity;BMP_temperature;BMP_pressure;BME280_temperature;BME280_humidity;BME280_pressure;Samples;Min_cycle;Max_cycle;Signal;HPM_P1;HPM_P2
2022/03/18 00:00:44;;;;;;;22.50;13.85;;;;;;;;;;2076194;28;20512;-58
2022/03/18 00:02:04;;;;;;;21.05;13.95;;;;;;;;;;2074441;28;20128;-59
2022/03/18 00:03:23;;;;;;;25.08;14.02;;;;;;;;;;2076322;28;20482;-59
2022/03/18 00:04:42;;;;;;;26.65;14.40;;;;;;;;;;2079512;28;20033;-58
2022/03/18 00:06:01;;;;;;;26.13;14.82;;;;;;;;;;2079979;28;20038;-58
2022/03/18 00:07:21;;;;;;;24.48;15.10;;;;;;;;;;2079645;28;20038;-59
2022/03/18 00:08:39;;;;;;;25.33;14.02;;;;;;;;;;2074672;28;20033;-58
2022/03/18 00:09:58;;;;;;;21.33;14.48;;;;;;;;;;2073624;28;20025;-59
2022/03/18 00:11:17;;;;;;;23.30;14.60;;;;;;;;;;2076960;28;20068;-59
2022/03/18 00:12:37;;;;;;;22.30;14.68;;;;;;;;;;2076510;28;20057;-59
2022/03/18 00:13:58;;;;;;;24.63;15.07;;;;;;;;;;2075180;28;20025;-58
2022/03/18 00:15:16;;;;;;;21.17;14.60;;;;;;;;;;2080580;28;20112;-58
2022/03/18 00:16:36;;;;;;;29.40;15.88;;;;;;;;;;2073519;28;20100;-59
2022/03/18 00:17:55;;;;;;;23.35;13.90;;;;;;;;;;2074802;28;20034;-58
2022/03/18 00:19:14;;;;;;;24.73;15.10;;;;;;;;;;2072886;28;20026;-59
2022/03/18 00:20:33;;;;;;;28.13;14.90;;;;;;;;;;2074108;28;20030;-59
2022/03/18 00:22:00;;;;;;;25.48;15.50;;;;;;;;;;2073937;28;20688;-58
2022/03/18 00:23:19;;;;;;;23.67;15.05;;;;;;;;;;2074555;28;20487;-59
2022/03/18 00:24:38;;;;;;;24.60;15.07;;;;;;;;;;2074695;28;20033;-59
2022/03/18 00:25:57;;;;;;;27.38;16.33;;;;;;;;;;2079432;28;20487;-59
2022/03/18 00:27:16;;;;;;;25.45;15.77;;;;;;;;;;2077259;28;20026;-60
2022/03/18 00:28:35;;;;;;;25.25;14.90;;;;;;;;;;2074396;28;20049;-59
2022/03/18 00:29:54;;;;;;;25.90;16.23;;;;;;;;;;2070982;28;20069;-59
2022/03/18 00:31:14;;;;;;;28.25;15.38;;;;;;;;;;2072903;28;20030;-59
2022/03/18 00:32:33;;;;;;;27.10;15.60;;;;;;;;;;2072197;28;20037;-59
2022/03/18 00:33:52;;;;;;;24.70;16.17;;;;;;;;;;2076236;28;20104;-59
2022/03/18 00:35:11;;;;;;;26.13;15.20;;;;;;;;;;2080377;28;20033;-59
2022/03/18 00:36:30;;;;;;;25.73;16.33;;;;;;;;;;2077174;28;20038;-59
2022/03/18 00:37:49;;;;;;;26.63;15.85;;;;;;;;;;2074088;28;20034;-59
2022/03/18 00:39:08;;;;;;;27.50;16.17;;;;;;;;;;2073437;28;20037;-60
2022/03/18 00:40:27;;;;;;;24.95;15.77;;;;;;;;;;2073092;28;20034;-59
2022/03/18 00:41:46;;;;;;;24.13;16.23;;;;;;;;;;2075537;28;20113;-60
2022/03/18 00:43:05;;;;;;;24.83;15.52;;;;;;;;;;2073828;28;20029;-59
2022/03/18 00:44:25;;;;;;;27.05;16.10;;;;;;;;;;2073195;28;20289;-59
2022/03/18 00:45:44;;;;;;;29.02;15.95;;;;;;;;;;2075734;28;20071;-60
2022/03/18 00:47:03;;;;;;;27.88;16.38;;;;;;;;;;2079006;28;20034;-59
2022/03/18 00:53:15;;;;;;;25.45;16.58;;;;;;;;;;2074907;28;20026;-58
2022/03/18 00:54:39;;;;;;;24.02;17.20;;;;;;;;;;2072914;28;21815;-59
2022/03/18 00:55:58;;;;;;;30.42;16.48;;;;;;;;;;2073050;28;20366;-59
2022/03/18 00:57:17;;;;;;;29.35;17.08;;;;;;;;;;2072171;28;20026;-59
2022/03/18 00:58:36;;;;;;;31.42;17.35;;;;;;;;;;2073928;28;20037;-58
2022/03/18 00:59:55;;;;;;;28.65;17.00;;;;;;;;;;2074253;28;20045;-59
2022/03/18 01:01:14;;;;;;;32.20;17.42;;;;;;;;;;2075078;28;20037;-60
2022/03/18 01:02:33;;;;;;;29.30;17.52;;;;;;;;;;2073141;28;20029;-59
2022/03/18 01:03:52;;;;;;;26.85;16.08;;;;;;;;;;2077365;28;20033;-60
2022/03/18 01:05:11;;;;;;;31.05;17.67;;;;;;;;;;2080532;28;20504;-59
2022/03/18 01:06:30;;;;;;;31.50;17.73;;;;;;;;;;2074635;28;20132;-59
2022/03/18 01:07:49;;;;;;;30.00;17.67;;;;;;;;;;2073530;28;20511;-59
2022/03/18 01:09:08;;;;;;;31.73;18.65;;;;;;;;;;2074971;28;20041;-59
2022/03/18 01:10:27;;;;;;;28.45;18.30;;;;;;;;;;2080242;28;20512;-59
2022/03/18 01:11:46;;;;;;;28.60;18.45;;;;;;;;;;2074838;28;20033;-60
2022/03/18 01:13:05;;;;;;;32.92;18.33;;;;;;;;;;2078709;28;20037;-60
2022/03/18 01:14:24;;;;;;;38.03;19.63;;;;;;;;;;2078120;28;20037;-60
2022/03/18 01:15:43;;;;;;;32.42;18.77;;;;;;;;;;2076851;28;20042;-60
2022/03/18 01:17:02;;;;;;;29.58;19.40;;;;;;;;;;2080505;28;20041;-59
2022/03/18 01:18:21;;;;;;;31.15;19.42;;;;;;;;;;2078857;28;20029;-60
2022/03/18 01:19:40;;;;;;;30.73;19.80;;;;;;;;;;2077723;28;20033;-59
2022/03/18 01:20:59;;;;;;;33.08;20.25;;;;;;;;;;2078229;28;20388;-59
2022/03/18 01:22:18;;;;;;;33.97;21.52;;;;;;;;;;2078211;28;20030;-59
2022/03/18 01:23:37;;;;;;;33.58;20.88;;;;;;;;;;2080387;28;20034;-59
2022/03/18 01:24:56;;;;;;;32.53;19.20;;;;;;;;;;2079566;28;20104;-59
2022/03/18 01:26:15;;;;;;;33.50;19.83;;;;;;;;;;2076298;28;20034;-60
2022/03/18 01:27:34;;;;;;;32.05;20.52;;;;;;;;;;2080201;28;20030;-60
2022/03/18 01:28:53;;;;;;;35.55;20.55;;;;;;;;;;2077672;28;20034;-59
2022/03/18 01:30:15;;;;;;;33.20;21.10;;;;;;;;;;2079583;28;20033;-59
2022/03/18 01:31:34;;;;;;;34.22;21.13;;;;;;;;;;2077201;28;20038;-60
2022/03/18 01:32:53;;;;;;;41.00;22.60;;;;;;;;;;2079387;28;20056;-60
2022/03/18 01:34:12;;;;;;;33.58;22.08;;;;;;;;;;2080125;28;20025;-59
2022/03/18 01:35:31;;;;;;;37.72;22.13;;;;;;;;;;2079105;28;20049;-59
2022/03/18 01:36:50;;;;;;;36.10;20.60;;;;;;;;;;2078082;28;20396;-59
2022/03/18 01:38:09;;;;;;;36.47;21.25;;;;;;;;;;2078572;28;20021;-59
2022/03/18 01:39:28;;;;;;;40.72;23.02;;;;;;;;;;2079478;28;20033;-60
2022/03/18 01:40:47;;;;;;;34.40;22.52;;;;;;;;;;2078046;28;20029;-59
2022/03/18 01:42:06;;;;;;;38.05;23.73;;;;;;;;;;2079286;28;20085;-58
2022/03/18 01:43:25;;;;;;;34.75;22.30;;;;;;;;;;2080004;28;20034;-59
2022/03/18 01:44:46;;;;;;;39.58;23.20;;;;;;;;;;2079329;28;20454;-59
2022/03/18 01:46:05;;;;;;;39.92;23.33;;;;;;;;;;2079365;28;20081;-59
2022/03/18 01:47:24;;;;;;;43.47;22.85;;;;;;;;;;2080090;28;20038;-59
2022/03/18 01:48:43;;;;;;;37.97;24.52;;;;;;;;;;2081064;28;20030;-60
2022/03/18 01:50:02;;;;;;;40.05;23.67;;;;;;;;;;2078593;28;20502;-60
2022/03/18 01:51:22;;;;;;;38.10;24.17;;;;;;;;;;2077792;28;21693;-59
2022/03/18 01:52:42;;;;;;;40.58;24.00;;;;;;;;;;2077312;28;20025;-60
2022/03/18 01:55:38;;;;;;;45.05;24.38;;;;;;;;;;2079167;28;20026;-59
2022/03/18 01:56:57;;;;;;;38.97;23.10;;;;;;;;;;2077129;28;20496;-59
2022/03/18 01:58:16;;;;;;;40.47;24.15;;;;;;;;;;2079699;28;20029;-60
2022/03/18 01:59:35;;;;;;;44.95;24.73;;;;;;;;;;2080162;28;20037;-59
2022/03/18 02:00:54;;;;;;;41.78;24.30;;;;;;;;;;2078156;28;20033;-59
2022/03/18 02:02:14;;;;;;;42.90;24.15;;;;;;;;;;2079282;28;20041;-59
2022/03/18 02:03:33;;;;;;;37.17;23.75;;;;;;;;;;2078488;28;20033;-59
2022/03/18 02:04:52;;;;;;;39.47;24.05;;;;;;;;;;2078617;28;20029;-59
2022/03/18 02:06:11;;;;;;;42.75;24.10;;;;;;;;;;2077426;28;20033;-60
2022/03/18 02:07:30;;;;;;;37.00;24.92;;;;;;;;;;2073965;28;20413;-59
2022/03/18 02:08:49;;;;;;;45.42;25.52;;;;;;;;;;2078739;28;20388;-59
2022/03/18 02:10:09;;;;;;;40.15;24.52;;;;;;;;;;2079287;28;20022;-59
2022/03/18 02:11:28;;;;;;;45.35;24.83;;;;;;;;;;2076677;28;20160;-59
2022/03/18 02:12:47;;;;;;;40.33;24.92;;;;;;;;;;2075936;28;20041;-60
2022/03/18 02:14:06;;;;;;;38.90;24.48;;;;;;;;;;2078076;28;20021;-60
2022/03/18 02:15:25;;;;;;;48.00;25.52;;;;;;;;;;2079247;28;20026;-58
2022/03/18 02:16:44;;;;;;;39.42;24.80;;;;;;;;;;2080774;28;20077;-59
2022/03/18 02:18:04;;;;;;;44.85;26.13;;;;;;;;;;2079042;28;20029;-60
2022/03/18 02:19:23;;;;;;;43.17;24.02;;;;;;;;;;2078925;28;20018;-59
2022/03/18 02:20:42;;;;;;;41.85;25.88;;;;;;;;;;2077115;28;20134;-60
2022/03/18 02:22:03;;;;;;;39.95;24.85;;;;;;;;;;2076396;28;20022;-58
2022/03/18 02:23:22;;;;;;;43.08;25.13;;;;;;;;;;2078354;28;20476;-60
2022/03/18 02:24:42;;;;;;;43.53;25.55;;;;;;;;;;2078844;28;20033;-58
2022/03/18 02:26:01;;;;;;;42.83;25.60;;;;;;;;;;2077570;28;20468;-60
2022/03/18 02:27:20;;;;;;;42.85;25.63;;;;;;;;;;2077288;28;20128;-58
2022/03/18 02:28:39;;;;;;;45.00;25.13;;;;;;;;;;2077193;28;20045;-59
2022/03/18 02:29:57;;;;;;;42.50;24.27;;;;;;;;;;2079295;28;20396;-59
2022/03/18 02:31:16;;;;;;;45.05;25.80;;;;;;;;;;2078568;28;20021;-59
2022/03/18 02:32:36;;;;;;;37.10;24.52;;;;;;;;;;2077219;28;20324;-59
2022/03/18 02:33:55;;;;;;;43.17;25.50;;;;;;;;;;2081206;28;20057;-60
2022/03/18 02:35:14;;;;;;;44.75;25.95;;;;;;;;;;2080317;28;20029;-60
2022/03/18 02:36:33;;;;;;;40.35;25.50;;;;;;;;;;2081146;28;20497;-59
2022/03/18 02:37:52;;;;;;;45.72;26.77;;;;;;;;;;2079427;28;20112;-59
2022/03/18 02:39:11;;;;;;;37.17;25.33;;;;;;;;;;2081045;28;20022;-59
2022/03/18 02:40:30;;;;;;;41.72;25.13;;;;;;;;;;2080635;28;20101;-59
2022/03/18 02:41:49;;;;;;;41.47;24.65;;;;;;;;;;2079097;28;20037;-59
2022/03/18 02:43:08;;;;;;;42.05;25.50;;;;;;;;;;2078360;28;20113;-60
2022/03/18 02:44:27;;;;;;;45.63;26.63;;;;;;;;;;2080281;28;20049;-60
2022/03/18 02:45:46;;;;;;;38.88;24.88;;;;;;;;;;2080960;28;20029;-60
2022/03/18 02:47:05;;;;;;;42.63;27.48;;;;;;;;;;2080473;28;20403;-59
2022/03/18 02:48:24;;;;;;;47.72;27.08;;;;;;;;;;2079038;28;20033;-59
2022/03/18 02:49:43;;;;;;;44.95;27.02;;;;;;;;;;2080606;28;20029;-60
2022/03/18 02:51:02;;;;;;;45.85;26.75;;;;;;;;;;2080961;28;20034;-59
2022/03/18 02:52:21;;;;;;;45.92;26.08;;;;;;;;;;2080170;28;20021;-59
2022/03/18 02:53:40;;;;;;;49.45;26.90;;;;;;;;;;2080384;28;20065;-59
2022/03/18 02:54:59;;;;;;;40.05;25.25;;;;;;;;;;2079784;28;20049;-59
2022/03/18 02:56:18;;;;;;;47.30;27.60;;;;;;;;;;2080196;28;20029;-60
2022/03/18 02:57:38;;;;;;;41.35;25.52;;;;;;;;;;2080040;28;20025;-59
2022/03/18 02:58:57;;;;;;;40.60;25.65;;;;;;;;;;2080119;28;20033;-59
2022/03/18 03:00:17;;;;;;;42.92;27.05;;;;;;;;;;2080789;28;20116;-58
2022/03/18 03:01:36;;;;;;;41.28;26.25;;;;;;;;;;2080376;28;20544;-59
2022/03/18 03:02:55;;;;;;;42.70;26.73;;;;;;;;;;2078291;28;20041;-59
2022/03/18 03:04:15;;;;;;;44.33;28.02;;;;;;;;;;2079675;28;20064;-60
2022/03/18 03:08:49;;;;;;;41.83;26.02;;;;;;;;;;2080761;28;20412;-59
2022/03/18 03:10:09;;;;;;;46.28;26.67;;;;;;;;;;2079601;28;20113;-59
2022/03/18 03:11:28;;;;;;;43.03;26.52;;;;;;;;;;2079568;28;20026;-60
2022/03/18 03:12:47;;;;;;;45.13;27.00;;;;;;;;;;2078184;28;20030;-59
2022/03/18 03:14:07;;;;;;;49.15;27.80;;;;;;;;;;2078693;28;20033;-59
2022/03/18 03:15:26;;;;;;;45.00;26.60;;;;;;;;;;2079248;28;20026;-59
2022/03/18 03:16:46;;;;;;;45.92;27.42;;;;;;;;;;2075511;28;20053;-59
2022/03/18 03:18:06;;;;;;;52.17;25.45;;;;;;;;;;2078700;28;20037;-58
2022/03/18 03:19:25;;;;;;;40.58;25.67;;;;;;;;;;2080481;28;20021;-58
2022/03/18 03:20:44;;;;;;;47.03;26.20;;;;;;;;;;2081263;28;20115;-59
2022/03/18 03:22:03;;;;;;;46.03;26.40;;;;;;;;;;2077732;28;20030;-59
2022/03/18 03:23:25;;;;;;;43.83;25.42;;;;;;;;;;2080203;28;20392;-60
2022/03/18 03:24:45;;;;;;;40.55;23.00;;;;;;;;;;2080129;28;20030;-59
2022/03/18 03:26:03;;;;;;;39.47;25.42;;;;;;;;;;2080169;28;20427;-59
2022/03/18 03:27:26;;;;;;;48.80;25.30;;;;;;;;;;2077559;28;20033;-59
2022/03/18 03:28:45;;;;;;;44.00;25.42;;;;;;;;;;2079541;28;20112;-59
2022/03/18 03:30:08;;;;;;;47.08;26.73;;;;;;;;;;2079342;28;20034;-59
2022/03/18 03:31:27;;;;;;;;;;;;;;;;;;2081019;28;20551;-59
2022/03/18 03:32:46;;;;;;;49.13;26.95;;;;;;;;;;2079253;28;19949;-58
2022/03/18 03:34:05;;;;;;;42.50;25.23;;;;;;;;;;2079536;28;20030;-59
2022/03/18 03:35:24;;;;;;;42.58;25.67;;;;;;;;;;2080016;28;20404;-59
2022/03/18 03:36:43;;;;;;;44.67;24.67;;;;;;;;;;2079726;28;20065;-59
2022/03/18 03:38:03;;;;;;;42.05;25.15;;;;;;;;;;2080613;28;20021;-60
2022/03/18 03:39:22;;;;;;;44.65;25.83;;;;;;;;;;2079277;28;20329;-59
2022/03/18 03:40:41;;;;;;;40.70;25.27;;;;;;;;;;2080742;28;20025;-59
2022/03/18 03:42:00;;;;;;;48.25;25.98;;;;;;;;;;2080735;28;20439;-59
2022/03/18 03:43:19;;;;;;;43.17;25.90;;;;;;;;;;2080769;28;20053;-59
2022/03/18 03:44:38;;;;;;;43.25;24.92;;;;;;;;;;2080838;28;20560;-59
2022/03/18 03:45:57;;;;;;;40.55;25.85;;;;;;;;;;2079887;28;20033;-59
2022/03/18 03:47:16;;;;;;;48.15;26.98;;;;;;;;;;2080181;28;20033;-59
2022/03/18 03:48:35;;;;;;;42.75;25.23;;;;;;;;;;2079686;28;20029;-59
2022/03/18 03:49:54;;;;;;;45.72;25.90;;;;;;;;;;2079491;28;20065;-59
2022/03/18 03:51:13;;;;;;;42.42;26.30;;;;;;;;;;2080756;28;20033;-59
2022/03/18 03:52:32;;;;;;;44.38;26.50;;;;;;;;;;2078822;28;20034;-59
2022/03/18 03:53:50;;;;;;;44.78;26.58;;;;;;;;;;2078905;28;20026;-59
2022/03/18 03:55:11;;;;;;;46.03;26.30;;;;;;;;;;2078992;28;20042;-59
2022/03/18 03:56:29;;;;;;;43.90;26.38;;;;;;;;;;2079868;28;20030;-60
2022/03/18 03:57:48;;;;;;;41.65;25.20;;;;;;;;;;2079736;28;20061;-59
2022/03/18 03:59:08;;;;;;;46.90;27.45;;;;;;;;;;2078630;28;20476;-60
2022/03/18 04:00:27;;;;;;;46.30;25.33;;;;;;;;;;2079735;28;20060;-59
2022/03/18 04:01:46;;;;;;;42.58;25.95;;;;;;;;;;2080898;28;20033;-59
2022/03/18 04:03:05;;;;;;;43.42;26.33;;;;;;;;;;2080790;28;20388;-60
2022/03/18 04:04:25;;;;;;;46.22;25.33;;;;;;;;;;2078909;28;20041;-59
2022/03/18 04:05:43;;;;;;;45.35;24.83;;;;;;;;;;2080178;28;20500;-59
2022/03/18 04:07:02;;;;;;;42.22;25.60;;;;;;;;;;2078891;28;20038;-59
2022/03/18 04:08:21;;;;;;;46.35;26.80;;;;;;;;;;2080155;28;20034;-59
2022/03/18 04:09:40;;;;;;;44.60;26.02;;;;;;;;;;2078999;28;20053;-59
2022/03/18 04:10:59;;;;;;;41.75;25.33;;;;;;;;;;2079100;28;20034;-59
2022/03/18 04:12:18;;;;;;;42.70;24.08;;;;;;;;;;2078372;28;20029;-59
2022/03/18 04:13:37;;;;;;;43.95;26.27;;;;;;;;;;2080832;28;20033;-59
2022/03/18 04:14:56;;;;;;;44.50;25.38;;;;;;;;;;2080174;28;20037;-58
2022/03/18 04:16:15;;;;;;;40.45;24.40;;;;;;;;;;2078979;28;20045;-59
2022/03/18 04:17:38;;;;;;;45.47;26.23;;;;;;;;;;2080545;28;20029;-59
2022/03/18 04:18:57;;;;;;;44.38;26.17;;;;;;;;;;2077100;28;20459;-60
2022/03/18 04:20:18;;;;;;;45.33;24.85;;;;;;;;;;2076437;28;20116;-59
2022/03/18 04:21:36;;;;;;;43.72;25.83;;;;;;;;;;2079215;28;20033;-59
2022/03/18 04:22:55;;;;;;;42.05;25.02;;;;;;;;;;2078835;28;20030;-59
2022/03/18 04:24:14;;;;;;;36.40;24.27;;;;;;;;;;2078119;28;20085;-59
2022/03/18 04:25:33;;;;;;;39.47;25.63;;;;;;;;;;2078500;28;20041;-59
2022/03/18 04:26:52;;;;;;;39.58;24.80;;;;;;;;;;2079842;28;20041;-60
2022/03/18 04:28:11;;;;;;;42.63;25.38;;;;;;;;;;2077716;28;20615;-61
2022/03/18 04:29:31;;;;;;;40.17;25.05;;;;;;;;;;2077236;28;20041;-59
2022/03/18 04:30:50;;;;;;;40.15;23.70;;;;;;;;;;2078845;28;20434;-60
2022/03/18 04:32:12;;;;;;;38.88;23.45;;;;;;;;;;2078247;28;20907;-64
2022/03/18 04:33:31;;;;;;;43.63;25.27;;;;;;;;;;2078844;28;20042;-60
2022/03/18 04:34:50;;;;;;;37.00;23.67;;;;;;;;;;2080211;28;20029;-60
2022/03/18 04:36:09;;;;;;;43.80;25.52;;;;;;;;;;2079870;28;20033;-60
2022/03/18 04:37:28;;;;;;;37.88;23.58;;;;;;;;;;2078837;28;20056;-60
2022/03/18 04:38:47;;;;;;;41.70;23.88;;;;;;;;;;2077570;28;20022;-60
2022/03/18 04:40:07;;;;;;;38.85;24.63;;;;;;;;;;2079716;28;20033;-60
2022/03/18 04:41:26;;;;;;;39.85;23.83;;;;;;;;;;2079576;28;20464;-60
2022/03/18 04:42:45;;;;;;;39.40;24.38;;;;;;;;;;2072663;28;20039;-60
2022/03/18 04:44:04;;;;;;;43.17;24.60;;;;;;;;;;2077545;28;20041;-60
2022/03/18 04:45:23;;;;;;;39.78;24.33;;;;;;;;;;2076202;28;20049;-60
2022/03/18 04:46:43;;;;;;;46.72;25.20;;;;;;;;;;2080083;28;20495;-60
2022/03/18 04:48:02;;;;;;;41.80;25.13;;;;;;;;;;2076148;28;20030;-60
2022/03/18 04:49:21;;;;;;;42.22;23.63;;;;;;;;;;2077832;28;20033;-60
2022/03/18 04:50:40;;;;;;;45.83;24.92;;;;;;;;;;2080390;28;20037;-60
2022/03/18 04:51:59;;;;;;;42.83;25.77;;;;;;;;;;2078680;28;20022;-60
2022/03/18 04:53:18;;;;;;;43.90;24.85;;;;;;;;;;2079356;28;20069;-59
2022/03/18 04:54:37;;;;;;;46.78;25.67;;;;;;;;;;2079180;28;20442;-60
2022/03/18 04:55:56;;;;;;;41.95;26.33;;;;;;;;;;2079910;28;20109;-60
2022/03/18 04:57:15;;;;;;;42.60;25.02;;;;;;;;;;2078647;28;20030;-60
2022/03/18 04:58:34;;;;;;;42.67;26.63;;;;;;;;;;2075859;28;20026;-60
2022/03/18 04:59:53;;;;;;;42.10;25.42;;;;;;;;;;2077317;28;20070;-60
2022/03/18 05:01:12;;;;;;;45.22;24.92;;;;;;;;;;2079462;28;20022;-60
2022/03/18 05:02:30;;;;;;;44.17;25.73;;;;;;;;;;2077257;28;20041;-59
2022/03/18 05:03:49;;;;;;;45.63;24.52;;;;;;;;;;2077936;28;20038;-60
2022/03/18 05:05:10;;;;;;;41.78;24.02;;;;;;;;;;2076982;28;20487;-59
2022/03/18 05:06:29;;;;;;;41.58;26.30;;;;;;;;;;2077881;28;20029;-59
2022/03/18 05:07:49;;;;;;;44.05;25.20;;;;;;;;;;2077364;28;20492;-60
2022/03/18 05:09:08;;;;;;;40.13;24.33;;;;;;;;;;2078844;28;20025;-60
2022/03/18 05:10:27;;;;;;;44.00;25.25;;;;;;;;;;2079152;28;20037;-59
2022/03/18 05:11:46;;;;;;;42.50;23.85;;;;;;;;;;2077981;28;20037;-59
2022/03/18 05:13:06;;;;;;;40.90;24.77;;;;;;;;;;2078158;28;20053;-59
2022/03/18 05:14:25;;;;;;;43.47;25.35;;;;;;;;;;2078041;28;20029;-59
2022/03/18 05:15:43;;;;;;;40.53;25.13;;;;;;;;;;2072875;28;20033;-60
2022/03/18 05:17:03;;;;;;;40.20;24.90;;;;;;;;;;2077252;28;20045;-60
2022/03/18 05:18:22;;;;;;;39.92;24.00;;;;;;;;;;2077056;28;20037;-59
2022/03/18 05:19:41;;;;;;;47.65;25.45;;;;;;;;;;2080158;28;20037;-59
2022/03/18 05:21:00;;;;;;;43.67;24.70;;;;;;;;;;2079532;28;20038;-60
2022/03/18 05:22:19;;;;;;;42.17;24.73;;;;;;;;;;2078106;28;20042;-60
2022/03/18 05:23:38;;;;;;;44.00;25.42;;;;;;;;;;2077794;28;20041;-60
2022/03/18 05:24:57;;;;;;;41.22;24.52;;;;;;;;;;2079093;28;20395;-58
2022/03/18 05:26:16;;;;;;;45.20;24.92;;;;;;;;;;2078559;28;20037;-59
2022/03/18 05:27:43;;;;;;;39.53;22.88;;;;;;;;;;2079334;28;20439;-58
2022/03/18 05:29:02;;;;;;;41.47;24.52;;;;;;;;;;2079880;28;20394;-60
2022/03/18 05:30:21;;;;;;;39.00;23.55;;;;;;;;;;2076855;28;20132;-60
2022/03/18 05:31:42;;;;;;;43.88;24.17;;;;;;;;;;2078596;28;20041;-59
2022/03/18 05:33:00;;;;;;;36.45;23.13;;;;;;;;;;2078528;28;20022;-58
2022/03/18 05:34:19;;;;;;;43.50;23.17;;;;;;;;;;2078889;28;20053;-59
2022/03/18 05:35:38;;;;;;;35.92;23.05;;;;;;;;;;2078243;28;20034;-59
2022/03/18 05:36:58;;;;;;;43.08;23.60;;;;;;;;;;2078112;28;20026;-60
2022/03/18 05:38:16;;;;;;;38.63;24.38;;;;;;;;;;2078471;28;20021;-59
2022/03/18 05:39:35;;;;;;;37.25;23.67;;;;;;;;;;2079246;28;20037;-60
2022/03/18 05:40:54;;;;;;;38.70;23.88;;;;;;;;;;2077717;28;20424;-60
2022/03/18 05:42:13;;;;;;;40.67;23.92;;;;;;;;;;2077404;28;20038;-59
2022/03/18 05:43:32;;;;;;;36.33;21.65;;;;;;;;;;2076892;28;20041;-59
2022/03/18 05:44:51;;;;;;;35.40;21.45;;;;;;;;;;2071690;28;20031;-59
2022/03/18 05:46:11;;;;;;;38.10;20.08;;;;;;;;;;2076124;28;20065;-59
2022/03/18 05:47:31;;;;;;;34.78;21.75;;;;;;;;;;2077474;28;20026;-59
2022/03/18 05:48:50;;;;;;;40.03;23.05;;;;;;;;;;2078013;28;20033;-59
2022/03/18 05:50:15;;;;;;;37.20;22.83;;;;;;;;;;2079529;28;20069;-59
2022/03/18 05:51:34;;;;;;;36.38;21.67;;;;;;;;;;2078816;28;20449;-60
2022/03/18 05:52:53;;;;;;;32.75;21.25;;;;;;;;;;2077146;28;20022;-60
2022/03/18 05:54:12;;;;;;;36.78;23.15;;;;;;;;;;2079721;28;20030;-60
2022/03/18 05:56:52;;;;;;;40.70;21.95;;;;;;;;;;2077109;28;20033;-60
2022/03/18 05:57:12;;;;;;;40.95;21.42;;;;;;;;;;2078413;28;20022;-59
2022/03/18 05:58:31;;;;;;;38.13;20.55;;;;;;;;;;2078212;28;20528;-60
2022/03/18 05:59:50;;;;;;;36.33;21.67;;;;;;;;;;2077000;28;20034;-59
2022/03/18 06:01:12;;;;;;;38.35;21.08;;;;;;;;;;2079714;28;20435;-59
2022/03/18 06:02:33;;;;;;;33.53;20.90;;;;;;;;;;2077864;28;20026;-59
2022/03/18 06:03:52;;;;;;;36.30;19.55;;;;;;;;;;2077990;28;20454;-59
2022/03/18 06:05:11;;;;;;;35.83;19.63;;;;;;;;;;2077281;28;20026;-60
2022/03/18 06:06:30;;;;;;;35.03;21.38;;;;;;;;;;2078466;28;20041;-60
2022/03/18 06:07:49;;;;;;;36.67;20.98;;;;;;;;;;2077087;28;20479;-60
2022/03/18 06:12:24;;;;;;;31.60;18.00;;;;;;;;;;2077786;28;20026;-58
2022/03/18 06:13:43;;;;;;;33.78;18.27;;;;;;;;;;2079676;28;20034;-58
2022/03/18 06:15:02;;;;;;;30.90;18.00;;;;;;;;;;2080905;28;20476;-57
2022/03/18 06:16:21;;;;;;;32.28;18.02;;;;;;;;;;2075316;28;20030;-58
2022/03/18 06:17:39;;;;;;;28.42;18.00;;;;;;;;;;2076836;28;20033;-58
2022/03/18 06:18:58;;;;;;;32.72;19.63;;;;;;;;;;2080562;28;20017;-57
2022/03/18 06:20:18;;;;;;;27.50;15.80;;;;;;;;;;2080532;28;20109;-58
2022/03/18 06:21:37;;;;;;;28.20;17.00;;;;;;;;;;2081532;28;20038;-58
2022/03/18 06:22:56;;;;;;;26.00;15.80;;;;;;;;;;2076546;28;20021;-57
2022/03/18 06:24:15;;;;;;;28.88;16.33;;;;;;;;;;2075364;28;20041;-59
2022/03/18 06:25:34;;;;;;;26.48;15.15;;;;;;;;;;2075402;28;20030;-58
2022/03/18 06:26:53;;;;;;;29.65;15.32;;;;;;;;;;2076003;28;20512;-57
2022/03/18 06:28:12;;;;;;;26.58;16.42;;;;;;;;;;2080597;28;20430;-56
2022/03/18 06:29:31;;;;;;;24.52;14.10;;;;;;;;;;2078279;28;20038;-57
2022/03/18 06:30:50;;;;;;;28.52;14.88;;;;;;;;;;2079537;28;20026;-55
2022/03/18 06:32:10;;;;;;;27.70;14.50;;;;;;;;;;2080918;28;20512;-56
2022/03/18 06:33:29;;;;;;;26.50;15.45;;;;;;;;;;2081261;28;20499;-57
2022/03/18 06:34:48;;;;;;;21.92;12.13;;;;;;;;;;2081348;28;20034;-57
2022/03/18 06:36:07;;;;;;;25.77;13.30;;;;;;;;;;2078568;28;20034;-57
2022/03/18 06:37:26;;;;;;;28.02;14.27;;;;;;;;;;2079544;28;20037;-56
2022/03/18 06:38:46;;;;;;;19.98;12.15;;;;;;;;;;2080961;28;20041;-58
2022/03/18 06:40:05;;;;;;;20.38;13.02;;;;;;;;;;2080421;28;20033;-57
2022/03/18 06:41:25;;;;;;;21.83;12.85;;;;;;;;;;2079155;28;20029;-57
2022/03/18 06:42:44;;;;;;;18.05;11.70;;;;;;;;;;2079026;28;20033;-58
2022/03/18 06:44:03;;;;;;;19.25;11.65;;;;;;;;;;2076829;28;20125;-57
2022/03/18 06:45:21;;;;;;;18.27;11.18;;;;;;;;;;2080131;28;20037;-56
2022/03/18 06:46:40;;;;;;;16.05;10.13;;;;;;;;;;2078857;28;20033;-56
2022/03/18 06:47:59;;;;;;;21.17;11.13;;;;;;;;;;2079703;28;20495;-57
2022/03/18 06:49:18;;;;;;;19.40;10.45;;;;;;;;;;2079617;28;20433;-55
2022/03/18 06:50:37;;;;;;;15.30;8.77;;;;;;;;;;2080216;28;20045;-58
2022/03/18 06:51:56;;;;;;;19.20;9.25;;;;;;;;;;2077779;28;20384;-58
2022/03/18 06:53:15;;;;;;;18.27;10.18;;;;;;;;;;2076654;28;20428;-58
2022/03/18 06:54:34;;;;;;;18.88;8.13;;;;;;;;;;2079727;28;20037;-55
2022/03/18 06:55:53;;;;;;;19.10;8.93;;;;;;;;;;2079105;28;20033;-57
2022/03/18 06:57:12;;;;;;;19.35;8.10;;;;;;;;;;2079646;28;20543;-57
2022/03/18 06:58:32;;;;;;;20.58;8.60;;;;;;;;;;2075949;28;20045;-58
2022/03/18 06:59:51;;;;;;;16.10;7.45;;;;;;;;;;2078885;28;20029;-58
2022/03/18 07:01:10;;;;;;;18.25;8.15;;;;;;;;;;2079639;28;20412;-56
2022/03/18 07:02:29;;;;;;;15.32;7.28;;;;;;;;;;2078248;28;20064;-57
2022/03/18 07:03:48;;;;;;;11.85;6.93;;;;;;;;;;2079669;28;20037;-57
2022/03/18 07:05:08;;;;;;;15.55;7.80;;;;;;;;;;2079855;28;20057;-57
2022/03/18 07:06:27;;;;;;;14.95;7.32;;;;;;;;;;2079031;28;20084;-57
2022/03/18 07:07:48;;;;;;;14.60;7.07;;;;;;;;;;2080260;28;20029;-57
2022/03/18 07:09:07;;;;;;;14.32;6.78;;;;;;;;;;2078964;28;20021;-59
2022/03/18 07:10:26;;;;;;;13.80;6.70;;;;;;;;;;2078984;28;21744;-58
2022/03/18 07:11:45;;;;;;;9.90;6.53;;;;;;;;;;2079680;28;20025;-58
2022/03/18 07:13:04;;;;;;;12.35;7.13;;;;;;;;;;2080015;28;20527;-58
2022/03/18 07:14:23;;;;;;;15.15;6.70;;;;;;;;;;2080626;28;20053;-57
2022/03/18 07:15:42;;;;;;;12.07;6.05;;;;;;;;;;2079252;28;20375;-57
2022/03/18 07:18:38;;;;;;;17.77;6.00;;;;;;;;;;2078898;28;20033;-56
2022/03/18 07:19:57;;;;;;;10.35;5.65;;;;;;;;;;2079787;28;20109;-57
2022/03/18 07:21:16;;;;;;;10.98;5.75;;;;;;;;;;2081487;28;20079;-56
2022/03/18 07:22:35;;;;;;;11.23;5.95;;;;;;;;;;2077893;28;20518;-57
2022/03/18 07:23:54;;;;;;;7.93;5.50;;;;;;;;;;2080462;28;20116;-55
2022/03/18 07:25:13;;;;;;;19.63;5.18;;;;;;;;;;2080033;28;20022;-58
2022/03/18 07:26:32;;;;;;;13.20;5.63;;;;;;;;;;2080990;28;20037;-56
2022/03/18 07:27:51;;;;;;;9.52;5.22;;;;;;;;;;2080459;28;20510;-58
2022/03/18 07:29:10;;;;;;;12.85;5.13;;;;;;;;;;2079798;28;20034;-57
2022/03/18 07:30:29;;;;;;;9.02;4.90;;;;;;;;;;2080135;28;20031;-57
2022/03/18 07:31:48;;;;;;;7.53;4.30;;;;;;;;;;2078574;28;20037;-57
2022/03/18 07:33:07;;;;;;;11.48;4.97;;;;;;;;;;2079667;28;20026;-57
2022/03/18 07:34:26;;;;;;;12.23;4.28;;;;;;;;;;2081591;28;20034;-57
2022/03/18 07:35:45;;;;;;;11.57;3.85;;;;;;;;;;2080859;28;20037;-56
2022/03/18 07:37:04;;;;;;;11.52;4.50;;;;;;;;;;2079028;28;20468;-57
2022/03/18 07:38:23;;;;;;;11.88;4.00;;;;;;;;;;2079277;28;20491;-58
2022/03/18 07:39:42;;;;;;;9.30;3.42;;;;;;;;;;2079019;28;20029;-57
2022/03/18 07:41:01;;;;;;;10.70;3.70;;;;;;;;;;2079284;28;20025;-55
2022/03/18 07:42:20;;;;;;;9.50;3.58;;;;;;;;;;2078312;28;20021;-57
2022/03/18 07:43:39;;;;;;;11.35;3.95;;;;;;;;;;2079578;28;20051;-58
2022/03/18 07:44:57;;;;;;;8.93;4.05;;;;;;;;;;2075404;28;20026;-58
2022/03/18 07:46:17;;;;;;;9.30;3.40;;;;;;;;;;2079587;28;20018;-58
2022/03/18 07:47:37;;;;;;;6.72;2.83;;;;;;;;;;2078333;28;20508;-58
2022/03/18 07:48:55;;;;;;;6.65;2.80;;;;;;;;;;2079018;28;20122;-57
2022/03/18 07:50:19;;;;;;;6.22;2.50;;;;;;;;;;2078876;28;20615;-57
2022/03/18 07:51:38;;;;;;;5.43;2.95;;;;;;;;;;2078386;28;20097;-58
2022/03/18 07:52:58;;;;;;;4.75;2.20;;;;;;;;;;2080175;28;20029;-58
2022/03/18 07:54:17;;;;;;;6.68;3.03;;;;;;;;;;2077711;28;20030;-57
2022/03/18 07:55:37;;;;;;;6.82;2.63;;;;;;;;;;2080121;28;20497;-56
2022/03/18 07:56:56;;;;;;;9.48;3.53;;;;;;;;;;2080050;28;20026;-56